Time;durP1;ratioP1;P1;durP2;ratioP2;P2;SDS_P1;SDS_P2;PMS_P1;PMS_P2;Temp;Humidity;BMP_temperature;BMP_pressure;BME280_temperature;BME280_humidity;BME280_pressure;Samples;Min_cycle;Max_cycle;Signal;HPM_P1;HPM_P2
2023/08/07 00:01:17;;;;;;;0.17;0.17;;;;;;;;;;5001766;28;20034;-82
2023/08/07 00:03:43;;;;;;;0.75;0.20;;;;;;;;;;5000906;28;20038;-81
2023/08/07 00:06:10;;;;;;;3.15;2.67;;;;;;;;;;4999751;28;20026;-82
2023/08/07 00:08:37;;;;;;;0.10;0.10;;;;;;;;;;4997459;28;20027;-83
2023/08/07 00:11:14;;;;;;;0.03;0.03;;;;;;;;;;5014122;28;20034;-83
2023/08/07 00:13:39;;;;;;;1.20;0.10;;;;;;;;;;5012078;28;20136;-83
2023/08/07 00:16:05;;;;;;;0.52;0.20;;;;;;;;;;4996250;28;20447;-81
2023/08/07 00:18:31;;;;;;;0.55;0.55;;;;;;;;;;4998664;28;20033;-84
2023/08/07 00:20:57;;;;;;;0.10;0.10;;;;;;;;;;4998232;28;20041;-82
2023/08/07 00:23:23;;;;;;;0.05;0.05;;;;;;;;;;4996891;28;20585;-85
2023/08/07 00:25:48;;;;;;;0.35;0.10;;;;;;;;;;5012501;28;20113;-83
2023/08/07 00:28:14;;;;;;;0.20;0.10;;;;;;;;;;4996220;28;20080;-79
2023/08/07 00:30:40;;;;;;;0.10;0.10;;;;;;;;;;4997494;28;20042;-82
2023/08/07 00:33:06;;;;;;;0.08;0.08;;;;;;;;;;4998484;28;20065;-82
2023/08/07 00:35:31;;;;;;;0.30;0.10;;;;;;;;;;4999459;28;20034;-83
2023/08/07 00:37:58;;;;;;;0.00;0.00;;;;;;;;;;4982231;28;20418;-84
2023/08/07 00:40:24;;;;;;;0.22;0.10;;;;;;;;;;4998981;28;20086;-82
2023/08/07 00:42:50;;;;;;;0.10;0.10;;;;;;;;;;4980489;28;20050;-83
2023/08/07 00:45:17;;;;;;;0.43;0.13;;;;;;;;;;4978882;28;20030;-82
2023/08/07 00:47:43;;;;;;;1.17;0.15;;;;;;;;;;4995788;28;20030;-83
2023/08/07 00:50:10;;;;;;;0.00;0.00;;;;;;;;;;4979320;28;20027;-81
2023/08/07 00:52:36;;;;;;;0.00;0.00;;;;;;;;;;4981427;28;20117;-84
2023/08/07 00:55:03;;;;;;;0.08;0.08;;;;;;;;;;4982379;28;20132;-83
2023/08/07 00:57:30;;;;;;;0.00;0.00;;;;;;;;;;4981654;28;20494;-81
2023/08/07 00:59:56;;;;;;;0.00;0.00;;;;;;;;;;4997503;28;20045;-81
2023/08/07 01:02:21;;;;;;;0.10;0.10;;;;;;;;;;4981366;28;20468;-82
2023/08/07 01:04:47;;;;;;;0.00;0.00;;;;;;;;;;4997789;28;20038;-83
2023/08/07 01:07:13;;;;;;;0.00;0.00;;;;;;;;;;4997800;28;20062;-83
2023/08/07 01:09:39;;;;;;;0.08;0.08;;;;;;;;;;5001652;28;20053;-84
2023/08/07 01:12:04;;;;;;;0.35;0.20;;;;;;;;;;4986400;28;20035;-83
2023/08/07 01:14:40;;;;;;;1.10;0.00;;;;;;;;;;5004309;28;20052;-81
2023/08/07 01:17:10;;;;;;;0.10;0.10;;;;;;;;;;5008243;28;20023;-78
2023/08/07 01:19:36;;;;;;;0.05;0.00;;;;;;;;;;4997711;28;20026;-82
2023/08/07 01:22:10;;;;;;;0.00;0.00;;;;;;;;;;4993676;28;20740;-82
2023/08/07 01:24:37;;;;;;;0.10;0.10;;;;;;;;;;4991823;28;20034;-83
2023/08/07 01:27:17;;;;;;;0.00;0.00;;;;;;;;;;4989385;28;20125;-84
2023/08/07 01:30:09;;;;;;;0.00;0.00;;;;;;;;;;5007164;28;20058;-83
2023/08/07 01:32:59;;;;;;;0.20;0.10;;;;;;;;;;4992978;28;20023;-83
2023/08/07 01:35:29;;;;;;;0.57;0.10;;;;;;;;;;4997032;28;20031;-78
2023/08/07 01:37:57;;;;;;;0.13;0.00;;;;;;;;;;4998244;28;20037;-82
2023/08/07 01:40:24;;;;;;;0.00;0.00;;;;;;;;;;4990580;28;20038;-83
2023/08/07 01:42:50;;;;;;;0.60;0.00;;;;;;;;;;5001636;28;20085;-83
2023/08/07 01:45:28;;;;;;;0.43;0.00;;;;;;;;;;4983611;28;20066;-82
2023/08/07 01:47:53;;;;;;;0.05;0.05;;;;;;;;;;4999699;28;20133;-82
2023/08/07 01:50:21;;;;;;;0.10;0.10;;;;;;;;;;4982807;28;20073;-83
2023/08/07 01:52:47;;;;;;;0.00;0.00;;;;;;;;;;4999349;28;20026;-82
2023/08/07 01:55:17;;;;;;;0.10;0.00;;;;;;;;;;4983825;28;20026;-82
2023/08/07 01:57:43;;;;;;;0.17;0.10;;;;;;;;;;5000197;28;20023;-81
2023/08/07 02:00:09;;;;;;;0.10;0.10;;;;;;;;;;4999909;28;20034;-80
2023/08/07 02:02:36;;;;;;;0.00;0.00;;;;;;;;;;5000819;28;20030;-82
2023/08/07 02:05:02;;;;;;;0.20;0.10;;;;;;;;;;4984594;28;20485;-81
2023/08/07 02:07:28;;;;;;;0.10;0.10;;;;;;;;;;5000845;28;20478;-81
2023/08/07 02:09:55;;;;;;;0.45;0.10;;;;;;;;;;4985035;28;20030;-83
2023/08/07 02:12:21;;;;;;;0.17;0.05;;;;;;;;;;4985825;28;20032;-82
2023/08/07 02:14:46;;;;;;;1.05;0.03;;;;;;;;;;4984619;28;20138;-81
2023/08/07 02:17:15;;;;;;;1.33;0.00;;;;;;;;;;4985600;28;20029;-82
2023/08/07 02:19:40;;;;;;;1.98;0.15;;;;;;;;;;4985116;28;20026;-80
2023/08/07 02:22:06;;;;;;;0.00;0.00;;;;;;;;;;5004580;28;20554;-82
2023/08/07 02:24:35;;;;;;;0.40;0.03;;;;;;;;;;4988233;28;20032;-80
2023/08/07 02:27:00;;;;;;;0.00;0.00;;;;;;;;;;4988742;28;20036;-82
2023/08/07 02:29:26;;;;;;;0.00;0.00;;;;;;;;;;4985749;28;20049;-82
2023/08/07 02:31:51;;;;;;;0.10;0.10;;;;;;;;;;4984891;28;20358;-83
2023/08/07 02:34:17;;;;;;;0.00;0.00;;;;;;;;;;5001264;28;20082;-84
2023/08/07 02:36:43;;;;;;;0.20;0.10;;;;;;;;;;5003665;28;20040;-80
2023/08/07 02:39:09;;;;;;;1.95;0.32;;;;;;;;;;4986477;28;20041;-82
2023/08/07 02:41:37;;;;;;;0.13;0.10;;;;;;;;;;5005052;28;20026;-82
2023/08/07 02:44:04;;;;;;;0.05;0.05;;;;;;;;;;5005425;28;20041;-83
2023/08/07 02:46:30;;;;;;;0.13;0.10;;;;;;;;;;5020414;28;20045;-82
2023/08/07 02:48:58;;;;;;;0.43;0.10;;;;;;;;;;5023883;28;20038;-82
2023/08/07 02:51:23;;;;;;;0.00;0.00;;;;;;;;;;5026833;28;20034;-82
2023/08/07 02:53:49;;;;;;;0.00;0.00;;;;;;;;;;5013644;28;20089;-81
2023/08/07 02:56:15;;;;;;;0.55;0.00;;;;;;;;;;5032417;28;20044;-83
2023/08/07 02:58:41;;;;;;;0.55;0.10;;;;;;;;;;5029509;28;20025;-81
2023/08/07 03:01:06;;;;;;;0.03;0.00;;;;;;;;;;5030128;28;20022;-84
2023/08/07 03:03:32;;;;;;;0.20;0.08;;;;;;;;;;5008730;28;20057;-82
2023/08/07 03:06:01;;;;;;;0.73;0.30;;;;;;;;;;5022089;28;20057;-83
2023/08/07 03:08:33;;;;;;;0.08;0.00;;;;;;;;;;5005403;28;20084;-81
2023/08/07 03:10:59;;;;;;;;;;;;;;;;;;5007904;28;20030;-81
2023/08/07 03:13:25;;;;;;;1.10;0.22;;;;;;;;;;5028250;28;20448;-81
2023/08/07 03:16:01;;;;;;;1.38;0.17;;;;;;;;;;5012412;28;20014;-81
2023/08/07 03:18:28;;;;;;;0.00;0.00;;;;;;;;;;5031061;28;20034;-79
2023/08/07 03:20:58;;;;;;;0.10;0.10;;;;;;;;;;5014175;28;20476;-81
2023/08/07 03:23:25;;;;;;;0.10;0.10;;;;;;;;;;5009697;28;20102;-81
2023/08/07 03:26:02;;;;;;;0.15;0.03;;;;;;;;;;4994049;28;20090;-82
2023/08/07 03:28:27;;;;;;;1.65;0.10;;;;;;;;;;5000492;28;20062;-82
2023/08/07 03:30:53;;;;;;;0.20;0.20;;;;;;;;;;5001010;28;20030;-82
2023/08/07 03:33:20;;;;;;;0.32;0.00;;;;;;;;;;4983085;28;20102;-82
2023/08/07 03:35:46;;;;;;;0.10;0.03;;;;;;;;;;4982989;28;20084;-83
2023/08/07 03:38:13;;;;;;;0.40;0.13;;;;;;;;;;5001864;28;20026;-84
2023/08/07 03:40:39;;;;;;;0.00;0.00;;;;;;;;;;4984337;28;20023;-83
2023/08/07 03:43:05;;;;;;;0.05;0.05;;;;;;;;;;4983827;28;20030;-83
2023/08/07 03:45:30;;;;;;;0.75;0.20;;;;;;;;;;4982406;28;20027;-82
2023/08/07 03:47:57;;;;;;;0.30;0.10;;;;;;;;;;4981741;28;20034;-84
2023/08/07 03:50:23;;;;;;;0.10;0.10;;;;;;;;;;5000792;28;20040;-81
2023/08/07 03:52:50;;;;;;;1.42;0.10;;;;;;;;;;4982347;28;20117;-83
2023/08/07 03:55:16;;;;;;;0.00;0.00;;;;;;;;;;4983404;28;20034;-82
2023/08/07 03:57:49;;;;;;;0.30;0.05;;;;;;;;;;5001657;28;20027;-82
2023/08/07 04:00:15;;;;;;;0.15;0.00;;;;;;;;;;4985594;28;20081;-81
2023/08/07 04:02:40;;;;;;;0.05;0.05;;;;;;;;;;4984591;28;20042;-82
2023/08/07 04:05:06;;;;;;;0.20;0.10;;;;;;;;;;4984588;28;20034;-80
2023/08/07 04:07:32;;;;;;;0.10;0.10;;;;;;;;;;4981366;28;20107;-83
2023/08/07 04:09:58;;;;;;;3.08;0.10;;;;;;;;;;4998495;28;20026;-82
2023/08/07 04:12:24;;;;;;;1.50;0.20;;;;;;;;;;5000948;28;20034;-84
2023/08/07 04:14:49;;;;;;;0.30;0.10;;;;;;;;;;4981148;28;20474;-82
2023/08/07 04:17:17;;;;;;;0.75;0.10;;;;;;;;;;4999841;28;20022;-81
2023/08/07 04:19:45;;;;;;;1.27;0.17;;;;;;;;;;4998221;28;20030;-83
2023/08/07 04:22:11;;;;;;;0.70;0.10;;;;;;;;;;4981289;28;20034;-81
2023/08/07 04:24:36;;;;;;;0.10;0.10;;;;;;;;;;4978671;28;20064;-83
2023/08/07 04:27:02;;;;;;;0.65;0.10;;;;;;;;;;4979062;28;20029;-82
2023/08/07 04:29:28;;;;;;;2.17;0.45;;;;;;;;;;4980053;28;20125;-83
2023/08/07 04:31:54;;;;;;;1.13;0.38;;;;;;;;;;5011033;28;20510;-81
2023/08/07 04:34:19;;;;;;;0.30;0.10;;;;;;;;;;4981910;28;20054;-81
2023/08/07 04:36:45;;;;;;;1.20;0.10;;;;;;;;;;4983795;28;20076;-83
2023/08/07 04:39:13;;;;;;;0.32;0.10;;;;;;;;;;4985747;28;20042;-81
2023/08/07 04:41:42;;;;;;;1.20;0.40;;;;;;;;;;5005225;28;20046;-80
2023/08/07 04:44:09;;;;;;;4.57;0.20;;;;;;;;;;4974982;28;20042;-80
2023/08/07 04:46:35;;;;;;;0.25;0.10;;;;;;;;;;4987616;28;20053;-81
2023/08/07 04:49:01;;;;;;;2.45;0.17;;;;;;;;;;5004842;28;20034;-83
2023/08/07 04:51:28;;;;;;;1.05;0.30;;;;;;;;;;4987913;28;20026;-81
2023/08/07 04:53:56;;;;;;;0.10;0.10;;;;;;;;;;4985674;28;20105;-83
2023/08/07 04:56:22;;;;;;;0.40;0.40;;;;;;;;;;4997814;28;20054;-81
2023/08/07 04:58:48;;;;;;;0.43;0.40;;;;;;;;;;4982637;28;20095;-81
2023/08/07 05:01:14;;;;;;;1.42;0.50;;;;;;;;;;5001356;28;20093;-84
2023/08/07 05:03:42;;;;;;;0.13;0.13;;;;;;;;;;4995113;28;20048;-81
2023/08/07 05:06:08;;;;;;;1.58;0.20;;;;;;;;;;5000676;28;20033;-82
2023/08/07 05:08:34;;;;;;;1.27;0.70;;;;;;;;;;5007794;28;20030;-83
2023/08/07 05:10:59;;;;;;;1.70;0.22;;;;;;;;;;5011218;28;20057;-82
2023/08/07 05:13:26;;;;;;;0.75;0.22;;;;;;;;;;5013721;28;20036;-82
2023/08/07 05:15:53;;;;;;;0.22;0.20;;;;;;;;;;5016211;28;20021;-82
2023/08/07 05:18:19;;;;;;;0.95;0.40;;;;;;;;;;5018970;28;20072;-80
2023/08/07 05:20:47;;;;;;;0.63;0.20;;;;;;;;;;5034139;28;20078;-82
2023/08/07 05:23:18;;;;;;;2.33;0.35;;;;;;;;;;5012750;28;20033;-81
2023/08/07 05:25:48;;;;;;;0.63;0.17;;;;;;;;;;5012834;28;20030;-83
2023/08/07 05:28:14;;;;;;;0.30;0.30;;;;;;;;;;5036897;28;20030;-79
2023/08/07 05:30:40;;;;;;;0.15;0.15;;;;;;;;;;5020101;28;20183;-82
2023/08/07 05:33:05;;;;;;;0.50;0.30;;;;;;;;;;5037130;28;20066;-80
2023/08/07 05:35:32;;;;;;;0.40;0.30;;;;;;;;;;5018341;28;20018;-83
2023/08/07 05:37:59;;;;;;;0.95;0.47;;;;;;;;;;5016278;28;20124;-83
2023/08/07 05:40:24;;;;;;;0.30;0.30;;;;;;;;;;5008962;28;20034;-85
2023/08/07 05:42:50;;;;;;;0.10;0.10;;;;;;;;;;5013625;28;20082;-84
2023/08/07 05:45:17;;;;;;;0.45;0.30;;;;;;;;;;5012399;28;20059;-84
2023/08/07 05:47:44;;;;;;;2.42;0.70;;;;;;;;;;5030841;28;20044;-83
2023/08/07 05:50:16;;;;;;;0.32;0.20;;;;;;;;;;5027775;28;20010;-83
2023/08/07 05:52:48;;;;;;;0.20;0.20;;;;;;;;;;5034994;28;20036;-83
2023/08/07 05:55:14;;;;;;;1.75;0.50;;;;;;;;;;4998773;28;20014;-83
2023/08/07 05:57:43;;;;;;;0.85;0.70;;;;;;;;;;5011830;28;20037;-83
2023/08/07 06:00:17;;;;;;;0.50;0.40;;;;;;;;;;5021853;28;20094;-84
2023/08/07 06:02:47;;;;;;;1.70;0.30;;;;;;;;;;5004713;28;20041;-84
2023/08/07 06:05:14;;;;;;;0.40;0.20;;;;;;;;;;4987546;28;20474;-83
2023/08/07 06:07:42;;;;;;;0.82;0.20;;;;;;;;;;5029391;28;20102;-82
2023/08/07 06:10:10;;;;;;;0.90;0.20;;;;;;;;;;5007951;28;20101;-82
2023/08/07 06:12:37;;;;;;;1.90;0.20;;;;;;;;;;5004736;28;20106;-82
2023/08/07 06:15:10;;;;;;;2.08;0.38;;;;;;;;;;5019363;28;20030;-84
2023/08/07 06:17:46;;;;;;;0.20;0.20;;;;;;;;;;5004962;28;20045;-81
2023/08/07 06:20:14;;;;;;;0.30;0.30;;;;;;;;;;5011278;28;20057;-82
2023/08/07 06:22:41;;;;;;;0.52;0.40;;;;;;;;;;5003205;28;20040;-81
2023/08/07 06:25:08;;;;;;;0.85;0.35;;;;;;;;;;5005166;28;20419;-85
2023/08/07 06:27:34;;;;;;;1.38;0.32;;;;;;;;;;4987884;28;20049;-83
2023/08/07 06:30:04;;;;;;;0.30;0.20;;;;;;;;;;5013183;28;20406;-82
2023/08/07 06:32:36;;;;;;;0.82;0.43;;;;;;;;;;4998585;28;20059;-86
2023/08/07 06:35:04;;;;;;;3.67;1.30;;;;;;;;;;5020176;28;20061;-82
2023/08/07 06:37:34;;;;;;;4.60;1.33;;;;;;;;;;5012666;28;20037;-84
2023/08/07 06:40:05;;;;;;;0.93;0.68;;;;;;;;;;5008988;28;20052;-82
2023/08/07 06:42:31;;;;;;;3.17;0.50;;;;;;;;;;5019760;28;20044;-79
2023/08/07 06:45:00;;;;;;;0.30;0.30;;;;;;;;;;5006492;28;20041;-78
2023/08/07 06:47:27;;;;;;;0.50;0.50;;;;;;;;;;5009613;28;20506;-80
2023/08/07 06:50:04;;;;;;;0.57;0.30;;;;;;;;;;5017235;28;20383;-83
2023/08/07 06:52:31;;;;;;;0.70;0.38;;;;;;;;;;5026481;28;20060;-83
2023/08/07 06:55:00;;;;;;;1.23;0.63;;;;;;;;;;5021237;28;20637;-81
2023/08/07 06:57:32;;;;;;;2.38;0.50;;;;;;;;;;5015462;28;20471;-85
2023/08/07 06:59:59;;;;;;;2.55;0.60;;;;;;;;;;5018956;28;20040;-79
2023/08/07 07:02:25;;;;;;;0.40;0.40;;;;;;;;;;5006444;28;20036;-81
2023/08/07 07:04:51;;;;;;;0.40;0.40;;;;;;;;;;5004826;28;21243;-79
2023/08/07 07:07:18;;;;;;;1.20;0.40;;;;;;;;;;4999865;28;20459;-81
2023/08/07 07:10:00;;;;;;;2.35;0.85;;;;;;;;;;5003058;28;20030;-82
2023/08/07 07:12:32;;;;;;;0.68;0.57;;;;;;;;;;5005449;28;20065;-79
2023/08/07 07:15:02;;;;;;;0.85;0.40;;;;;;;;;;5009971;28;20128;-80
2023/08/07 07:17:28;;;;;;;1.77;0.60;;;;;;;;;;5008108;28;20033;-82
2023/08/07 07:19:56;;;;;;;1.00;0.90;;;;;;;;;;5007192;28;20525;-81
2023/08/07 07:22:24;;;;;;;1.48;0.80;;;;;;;;;;5010019;28;20036;-81
2023/08/07 07:24:59;;;;;;;2.47;0.50;;;;;;;;;;5003460;28;20034;-82
2023/08/07 07:27:28;;;;;;;1.15;0.90;;;;;;;;;;5002660;28;20042;-82
2023/08/07 07:29:58;;;;;;;1.10;0.80;;;;;;;;;;5002364;28;20058;-82
2023/08/07 07:32:25;;;;;;;1.10;1.00;;;;;;;;;;4999826;28;20033;-79
2023/08/07 07:34:52;;;;;;;3.20;1.35;;;;;;;;;;5005233;28;20606;-81
2023/08/07 07:37:18;;;;;;;2.08;0.90;;;;;;;;;;5010326;28;20045;-81
2023/08/07 07:39:44;;;;;;;1.50;0.80;;;;;;;;;;5017858;28;20037;-81
2023/08/07 07:42:11;;;;;;;1.48;0.90;;;;;;;;;;5004132;28;20025;-82
2023/08/07 07:44:38;;;;;;;1.00;0.90;;;;;;;;;;5017455;28;20034;-78
2023/08/07 07:47:08;;;;;;;4.20;0.73;;;;;;;;;;5021029;28;20060;-78
2023/08/07 07:49:41;;;;;;;1.52;1.00;;;;;;;;;;5024196;28;20033;-78
2023/08/07 07:52:08;;;;;;;5.05;1.15;;;;;;;;;;5011376;28;20041;-77
2023/08/07 07:54:39;;;;;;;3.17;1.40;;;;;;;;;;5011212;28;20053;-79
2023/08/07 07:57:08;;;;;;;2.47;1.38;;;;;;;;;;5009478;28;20034;-76
2023/08/07 07:59:34;;;;;;;2.40;0.90;;;;;;;;;;5003320;28;20068;-78
2023/08/07 08:02:00;;;;;;;2.75;1.10;;;;;;;;;;5003321;28;20038;-79
2023/08/07 08:04:26;;;;;;;1.50;0.88;;;;;;;;;;5015148;28;20068;-81
2023/08/07 08:06:55;;;;;;;2.65;0.95;;;;;;;;;;5017835;28;20073;-77
2023/08/07 08:09:22;;;;;;;1.65;0.70;;;;;;;;;;5008071;28;20500;-80
2023/08/07 08:11:48;;;;;;;2.15;0.95;;;;;;;;;;5014126;28;20133;-80
2023/08/07 08:14:26;;;;;;;0.75;0.75;;;;;;;;;;5034229;23;20172;-77
2023/08/07 08:17:09;;;;;;;1.20;0.80;;;;;;;;;;5007252;28;20030;-78
2023/08/07 08:19:35;;;;;;;1.15;0.63;;;;;;;;;;5005289;28;20030;-78
2023/08/07 08:22:25;;;;;;;1.15;0.85;;;;;;;;;;5001506;28;20029;-77
2023/08/07 08:25:02;;;;;;;3.72;0.63;;;;;;;;;;5019546;28;20113;-81
2023/08/07 08:27:30;;;;;;;1.60;0.63;;;;;;;;;;5002110;28;20132;-79
2023/08/07 08:30:28;;;;;;;0.40;0.40;;;;;;;;;;4995123;28;20030;-80
2023/08/07 08:33:18;;;;;;;1.67;0.82;;;;;;;;;;5008347;28;20038;-80
2023/08/07 08:35:47;;;;;;;0.90;0.50;;;;;;;;;;5005325;28;20041;-81
2023/08/07 08:38:17;;;;;;;0.70;0.68;;;;;;;;;;4989132;28;20041;-79
2023/08/07 08:40:46;;;;;;;1.85;0.65;;;;;;;;;;4986520;28;20050;-79
2023/08/07 08:43:15;;;;;;;0.70;0.70;;;;;;;;;;4980746;28;20038;-79
2023/08/07 08:46:09;;;;;;;1.75;0.60;;;;;;;;;;4983042;28;20124;-80
2023/08/07 08:48:41;;;;;;;0.60;0.60;;;;;;;;;;4986593;28;20122;-77
2023/08/07 08:51:22;;;;;;;;;;;;;;;;;;4987040;28;20042;-80
2023/08/07 08:57:04;;;;;;;0.43;0.40;;;;;;;;;;4969307;28;20186;-78
2023/08/07 08:59:33;;;;;;;0.57;0.47;;;;;;;;;;4987844;28;20045;-76
2023/08/07 09:01:59;;;;;;;2.20;0.60;;;;;;;;;;4984009;28;20039;-78
2023/08/07 09:07:26;;;;;;;0.40;0.28;;;;;;;;;;4976000;28;20045;-79
2023/08/07 09:10:05;;;;;;;0.93;0.47;;;;;;;;;;4980561;28;20052;-79
2023/08/07 09:12:47;;;;;;;0.52;0.40;;;;;;;;;;4979255;28;20034;-78
2023/08/07 09:15:18;;;;;;;3.58;1.50;;;;;;;;;;4995049;28;20054;-77
2023/08/07 09:17:51;;;;;;;1.45;0.60;;;;;;;;;;5007701;28;20045;-77
2023/08/07 09:20:17;;;;;;;1.23;0.88;;;;;;;;;;5007000;28;20427;-78
2023/08/07 09:22:49;;;;;;;0.80;0.57;;;;;;;;;;5022181;28;20100;-78
2023/08/07 09:25:27;;;;;;;3.65;0.90;;;;;;;;;;5013675;28;20137;-78
2023/08/07 09:27:56;;;;;;;0.70;0.60;;;;;;;;;;5010935;28;20052;-81
2023/08/07 09:30:43;;;;;;;1.17;0.50;;;;;;;;;;5020136;28;20427;-78
2023/08/07 09:33:12;;;;;;;2.80;2.10;;;;;;;;;;5009455;28;20034;-78
2023/08/07 09:35:42;;;;;;;0.82;0.52;;;;;;;;;;5006499;28;20409;-77
2023/08/07 09:38:10;;;;;;;1.63;0.60;;;;;;;;;;5024267;28;20030;-80
2023/08/07 09:40:39;;;;;;;0.50;0.40;;;;;;;;;;5023640;28;20128;-78
2023/08/07 09:43:04;;;;;;;0.30;0.30;;;;;;;;;;5012784;28;20101;-77
2023/08/07 09:45:40;;;;;;;0.40;0.40;;;;;;;;;;5006129;28;20108;-77
2023/08/07 09:48:06;;;;;;;0.30;0.30;;;;;;;;;;5012559;28;20026;-77
2023/08/07 09:50:33;;;;;;;0.32;0.30;;;;;;;;;;5007088;28;20035;-80
2023/08/07 09:52:59;;;;;;;1.45;0.57;;;;;;;;;;5014856;28;20030;-81
2023/08/07 09:55:46;;;;;;;2.22;0.50;;;;;;;;;;5013602;28;20030;-77
2023/08/07 09:58:17;;;;;;;2.13;0.50;;;;;;;;;;5006270;28;20121;-78
2023/08/07 10:00:58;;;;;;;0.52;0.52;;;;;;;;;;5008633;28;20030;-80
2023/08/07 10:03:49;;;;;;;1.75;0.50;;;;;;;;;;5031431;28;20036;-80
2023/08/07 10:06:18;;;;;;;0.50;0.30;;;;;;;;;;5011617;28;20026;-78
2023/08/07 10:08:58;;;;;;;0.40;0.40;;;;;;;;;;5030277;28;20021;-78
2023/08/07 10:11:30;;;;;;;2.15;0.50;;;;;;;;;;5028667;28;20079;-77
2023/08/07 10:14:12;;;;;;;;;;;;;;;;;;;;;
2023/08/07 10:16:43;;;;;;;1.02;0.80;;;;;;;;;;5022070;28;20090;-78
2023/08/07 10:19:09;;;;;;;2.17;0.30;;;;;;;;;;5012756;28;20463;-78
2023/08/07 10:21:40;;;;;;;1.17;0.30;;;;;;;;;;5011765;28;20026;-79
2023/08/07 10:24:26;;;;;;;1.53;0.50;;;;;;;;;;5011484;28;20026;-80
2023/08/07 10:26:58;;;;;;;1.05;0.70;;;;;;;;;;5008990;28;20279;-78
2023/08/07 10:29:58;;;;;;;0.75;0.75;;;;;;;;;;5013187;28;20654;-79
2023/08/07 10:36:02;;;;;;;;;;;;;;;;;;;;;
2023/08/07 10:38:37;;;;;;;0.60;0.60;;;;;;;;;;5013558;28;20037;-79
2023/08/07 10:41:23;;;;;;;0.93;0.60;;;;;;;;;;5014740;28;20052;-82
2023/08/07 10:47:42;;;;;;;0.80;0.50;;;;;;;;;;4930774;29;20134;-81
2023/08/07 10:50:52;;;;;;;1.10;0.80;;;;;;;;;;4950581;28;20536;-82
2023/08/07 10:53:43;;;;;;;2.45;0.63;;;;;;;;;;5017013;28;20037;-79
2023/08/07 10:56:12;;;;;;;4.97;3.15;;;;;;;;;;5001452;28;20030;-79
2023/08/07 10:58:53;;;;;;;;;;;;;;;;;;;;;
2023/08/07 11:01:52;;;;;;;2.75;0.60;;;;;;;;;;5010003;28;20022;-80
2023/08/07 11:04:36;;;;;;;3.78;0.70;;;;;;;;;;5022629;28;20026;-81
2023/08/07 11:07:07;;;;;;;0.80;0.50;;;;;;;;;;5025643;28;20426;-81
2023/08/07 11:09:36;;;;;;;1.03;0.60;;;;;;;;;;5010048;28;20396;-79
2023/08/07 11:12:17;;;;;;;0.30;0.30;;;;;;;;;;5000463;28;20029;-81
2023/08/07 11:14:42;;;;;;;0.70;0.60;;;;;;;;;;5020086;28;20058;-79
2023/08/07 11:17:46;;;;;;;0.90;0.63;;;;;;;;;;5003563;28;20386;-81
2023/08/07 11:20:15;;;;;;;2.97;0.93;;;;;;;;;;4990962;28;20057;-80
2023/08/07 11:22:59;;;;;;;0.95;0.60;;;;;;;;;;5012427;28;20042;-79
2023/08/07 11:26:11;;;;;;;1.55;0.50;;;;;;;;;;5005833;28;20034;-81
2023/08/07 11:28:47;;;;;;;0.57;0.57;;;;;;;;;;4977013;28;20118;-81
2023/08/07 11:31:17;;;;;;;0.30;0.30;;;;;;;;;;5004696;28;20442;-78
2023/08/07 11:34:02;;;;;;;0.60;0.60;;;;;;;;;;5008764;28;20119;-80
2023/08/07 11:36:33;;;;;;;1.27;0.38;;;;;;;;;;5012774;28;20425;-79
2023/08/07 11:39:24;;;;;;;2.75;0.88;;;;;;;;;;5009946;28;20029;-83
2023/08/07 11:45:26;;;;;;;1.15;0.50;;;;;;;;;;4985118;28;20046;-82
2023/08/07 11:48:01;;;;;;;2.40;0.70;;;;;;;;;;5002618;28;20041;-80
2023/08/07 11:50:33;;;;;;;2.92;0.40;;;;;;;;;;5004767;28;20033;-78
2023/08/07 11:53:35;;;;;;;1.38;0.50;;;;;;;;;;5011418;28;20445;-82
2023/08/07 11:56:44;;;;;;;0.50;0.50;;;;;;;;;;5027708;28;20052;-82
2023/08/07 12:00:13;;;;;;;3.03;0.52;;;;;;;;;;5001145;28;20127;-84
2023/08/07 12:02:58;;;;;;;2.65;0.50;;;;;;;;;;5009612;28;20125;-82
2023/08/07 12:05:37;;;;;;;;;;;;;;;;;;;;;
2023/08/07 12:08:07;;;;;;;0.63;0.38;;;;;;;;;;5011739;28;20037;-79
2023/08/07 12:10:44;;;;;;;1.48;0.70;;;;;;;;;;5011263;28;20116;-80
2023/08/07 12:16:19;;;;;;;1.02;0.40;;;;;;;;;;5003636;28;20082;-81
2023/08/07 12:22:30;;;;;;;0.45;0.30;;;;;;;;;;4988472;28;20061;-82
2023/08/07 12:25:01;;;;;;;1.13;0.30;;;;;;;;;;5021319;28;20034;-78
2023/08/07 12:27:27;;;;;;;2.45;0.43;;;;;;;;;;5022913;28;20062;-80
2023/08/07 12:30:01;;;;;;;0.43;0.40;;;;;;;;;;5020758;28;20494;-81
2023/08/07 12:35:19;;;;;;;4.03;0.47;;;;;;;;;;5003226;28;20396;-81
2023/08/07 12:37:45;;;;;;;0.60;0.50;;;;;;;;;;4997976;28;20053;-80
2023/08/07 12:40:11;;;;;;;4.05;0.65;;;;;;;;;;5014815;28;20586;-78
2023/08/07 12:42:38;;;;;;;0.30;0.30;;;;;;;;;;4998942;28;20033;-79
2023/08/07 12:45:07;;;;;;;1.15;0.40;;;;;;;;;;5006526;28;20064;-80
2023/08/07 12:47:38;;;;;;;0.47;0.10;;;;;;;;;;5003331;28;20039;-77
2023/08/07 12:50:06;;;;;;;1.95;0.45;;;;;;;;;;5004306;28;20034;-79
2023/08/07 12:52:35;;;;;;;0.40;0.40;;;;;;;;;;5004996;28;20032;-78
2023/08/07 12:55:01;;;;;;;0.55;0.50;;;;;;;;;;5006230;28;20037;-80
2023/08/07 12:57:32;;;;;;;1.38;0.40;;;;;;;;;;5020770;28;20035;-78
2023/08/07 12:59:58;;;;;;;0.47;0.30;;;;;;;;;;5000020;28;20038;-78
2023/08/07 13:02:23;;;;;;;0.73;0.60;;;;;;;;;;5001990;28;20034;-79
2023/08/07 13:04:50;;;;;;;2.90;0.60;;;;;;;;;;5005370;28;20046;-80
2023/08/07 13:07:24;;;;;;;0.57;0.30;;;;;;;;;;5007907;28;20076;-77
2023/08/07 13:09:51;;;;;;;0.40;0.40;;;;;;;;;;5007282;28;20026;-78
2023/08/07 13:12:23;;;;;;;0.50;0.30;;;;;;;;;;5005597;28;20443;-80
2023/08/07 13:14:51;;;;;;;;;;;;;;;;;;5013238;28;20038;-77
2023/08/07 13:17:17;;;;;;;0.30;0.30;;;;;;;;;;5008182;28;19913;-79
2023/08/07 13:19:46;;;;;;;1.38;0.43;;;;;;;;;;5008447;28;20034;-79
2023/08/07 13:22:12;;;;;;;0.63;0.20;;;;;;;;;;5026605;28;20173;-78
2023/08/07 13:24:38;;;;;;;1.80;0.22;;;;;;;;;;5022631;28;20018;-76
2023/08/07 13:27:14;;;;;;;2.65;0.40;;;;;;;;;;5014576;28;20025;-78
2023/08/07 13:29:49;;;;;;;0.45;0.13;;;;;;;;;;5010120;28;20045;-81
2023/08/07 13:32:27;;;;;;;1.00;0.22;;;;;;;;;;5013389;28;20022;-82
2023/08/07 13:34:56;;;;;;;0.40;0.38;;;;;;;;;;5010047;28;20041;-83
2023/08/07 13:37:33;;;;;;;0.40;0.30;;;;;;;;;;5004644;28;20120;-80
2023/08/07 13:40:04;;;;;;;2.33;0.25;;;;;;;;;;5010518;28;20018;-81
2023/08/07 13:42:51;;;;;;;1.42;0.30;;;;;;;;;;5007750;28;20678;-82
2023/08/07 13:45:39;;;;;;;0.20;0.20;;;;;;;;;;5018507;28;20068;-82
2023/08/07 13:48:11;;;;;;;0.40;0.20;;;;;;;;;;5009809;28;20378;-81
2023/08/07 13:50:40;;;;;;;0.45;0.40;;;;;;;;;;5003531;28;20034;-82
2023/08/07 13:53:12;;;;;;;0.50;0.30;;;;;;;;;;5011411;28;20037;-82
2023/08/07 13:55:41;;;;;;;0.38;0.25;;;;;;;;;;5008840;28;20022;-80
2023/08/07 13:58:07;;;;;;;0.65;0.30;;;;;;;;;;5008958;28;20025;-81
2023/08/07 14:00:35;;;;;;;1.27;0.30;;;;;;;;;;5011489;28;20045;-82
2023/08/07 14:03:05;;;;;;;0.63;0.10;;;;;;;;;;5012507;28;20050;-78
2023/08/07 14:05:30;;;;;;;0.65;0.47;;;;;;;;;;5007103;28;20457;-79
2023/08/07 14:07:57;;;;;;;2.17;0.30;;;;;;;;;;5002664;28;20031;-79
2023/08/07 14:10:23;;;;;;;0.13;0.13;;;;;;;;;;5005452;28;20029;-78
2023/08/07 14:12:48;;;;;;;0.98;0.30;;;;;;;;;;5002719;28;20323;-77
2023/08/07 14:15:14;;;;;;;0.52;0.22;;;;;;;;;;5000621;28;20061;-77
2023/08/07 14:17:44;;;;;;;2.22;0.38;;;;;;;;;;5000188;28;20040;-77
2023/08/07 14:20:12;;;;;;;1.92;0.65;;;;;;;;;;4994253;28;20026;-77
2023/08/07 14:23:10;;;;;;;3.50;0.30;;;;;;;;;;5017187;28;20136;-78
2023/08/07 14:25:38;;;;;;;0.30;0.30;;;;;;;;;;5004045;28;20026;-78
2023/08/07 14:28:10;;;;;;;0.70;0.20;;;;;;;;;;5010057;28;20045;-81
2023/08/07 14:30:44;;;;;;;0.65;0.20;;;;;;;;;;5007954;28;20037;-81
2023/08/07 14:33:16;;;;;;;0.20;0.10;;;;;;;;;;5012147;28;20029;-79
2023/08/07 14:35:42;;;;;;;0.30;0.30;;;;;;;;;;5002281;28;20090;-79
2023/08/07 14:38:08;;;;;;;0.57;0.20;;;;;;;;;;5002557;28;20128;-78
2023/08/07 14:40:50;;;;;;;1.33;0.30;;;;;;;;;;5006638;28;20025;-80
2023/08/07 14:43:18;;;;;;;0.75;0.38;;;;;;;;;;5008312;28;20116;-80
2023/08/07 14:45:43;;;;;;;3.40;2.47;;;;;;;;;;5011216;28;20033;-82
2023/08/07 14:48:14;;;;;;;0.75;0.20;;;;;;;;;;5011243;28;20173;-78
2023/08/07 14:50:40;;;;;;;;;;;;;;;;;;5012987;28;20022;-77
2023/08/07 14:53:05;;;;;;;3.42;0.30;;;;;;;;;;5027144;28;19917;-77
2023/08/07 14:55:31;;;;;;;0.30;0.30;;;;;;;;;;5010559;28;20033;-79
2023/08/07 14:57:59;;;;;;;0.40;0.40;;;;;;;;;;5012390;28;20076;-79
2023/08/07 15:00:30;;;;;;;0.63;0.20;;;;;;;;;;5011961;28;20370;-80
2023/08/07 15:03:17;;;;;;;0.80;0.30;;;;;;;;;;5003130;28;20035;-79
2023/08/07 15:05:43;;;;;;;0.40;0.20;;;;;;;;;;5000367;28;20042;-80
2023/08/07 15:08:08;;;;;;;1.08;0.32;;;;;;;;;;5010114;28;20029;-80
2023/08/07 15:10:35;;;;;;;0.75;0.22;;;;;;;;;;5011886;28;20026;-81
2023/08/07 15:13:10;;;;;;;0.20;0.20;;;;;;;;;;5012548;28;20061;-81
2023/08/07 15:15:38;;;;;;;0.43;0.38;;;;;;;;;;5010919;28;20056;-81
2023/08/07 15:18:05;;;;;;;1.02;0.45;;;;;;;;;;5005380;28;20014;-80
2023/08/07 15:20:39;;;;;;;0.20;0.20;;;;;;;;;;4993676;28;20101;-79
2023/08/07 15:23:05;;;;;;;0.20;0.20;;;;;;;;;;4992081;28;20500;-82
2023/08/07 15:25:31;;;;;;;0.22;0.22;;;;;;;;;;4991769;28;20101;-81
2023/08/07 15:28:00;;;;;;;0.93;0.20;;;;;;;;;;4997843;28;20018;-81
2023/08/07 15:30:27;;;;;;;0.20;0.20;;;;;;;;;;5010702;28;20359;-81
2023/08/07 15:32:56;;;;;;;0.50;0.45;;;;;;;;;;5027056;28;20033;-81
2023/08/07 15:35:25;;;;;;;3.50;0.40;;;;;;;;;;5012149;28;20125;-81